Time;durP1;ratioP1;P1;durP2;ratioP2;P2;SDS_P1;SDS_P2;PMS_P1;PMS_P2;Temp;Humidity;BMP_temperature;BMP_pressure;BME280_temperature;BME280_humidity;BME280_pressure;Samples;Min_cycle;Max_cycle;Signal;HPM_P1;HPM_P2
2022/05/13 00:00:06;;;;;;;6.40;4.60;;;;;;;10.10;93.91;101069.22;695171;28;879;-44
2022/05/13 00:00:28;;;;;;;6.82;4.50;;;;;;;10.13;93.43;101070.06;700331;28;895;-43
2022/05/13 00:00:49;;;;;;;6.97;4.53;;;;;;;10.17;92.51;101061.38;700385;28;4310;-43
2022/05/13 00:01:11;;;;;;;6.43;4.65;;;;;;;10.22;91.97;101069.25;699767;28;911;-44
2022/05/13 00:01:31;;;;;;;7.60;4.65;;;;;;;10.25;92.48;101065.78;700311;28;827;-45
2022/05/13 00:01:51;;;;;;;6.60;4.57;;;;;;;10.22;92.81;101064.88;699048;28;906;-43
2022/05/13 00:02:12;;;;;;;6.47;4.53;;;;;;;10.22;92.48;101064.03;700350;28;1560;-43
2022/05/13 00:02:33;;;;;;;7.60;4.63;;;;;;;10.21;91.98;101060.53;698906;28;887;-44
2022/05/13 00:02:53;;;;;;;8.07;4.70;;;;;;;10.26;92.61;101072.72;699708;28;1025;-43
2022/05/13 00:03:13;;;;;;;7.70;4.70;;;;;;;10.22;93.54;101064.88;699530;28;879;-43
2022/05/13 00:03:35;;;;;;;7.32;4.85;;;;;;;10.20;94.51;101065.75;697984;28;934;-44
2022/05/13 00:03:55;;;;;;;7.13;5.18;;;;;;;10.16;94.87;101072.72;698900;28;4358;-45
2022/05/13 00:04:16;;;;;;;8.25;4.93;;;;;;;10.10;94.27;101069.22;699316;28;847;-43
2022/05/13 00:04:38;;;;;;;8.53;4.90;;;;;;;10.04;93.55;101070.06;699313;28;772;-43
2022/05/13 00:04:58;;;;;;;8.52;4.82;;;;;;;10.02;93.73;101074.38;699647;28;1030;-43
2022/05/13 00:05:18;;;;;;;6.72;4.80;;;;;;;10.02;93.34;101072.66;699349;28;946;-44
2022/05/13 00:05:39;;;;;;;6.40;5.00;;;;;;;10.01;94.76;101070.03;703594;27;4379;-45
2022/05/13 00:06:00;;;;;;;6.82;4.88;;;;;;;10.01;93.94;101070.03;703609;27;1187;-43
2022/05/13 00:06:20;;;;;;;7.45;4.90;;;;;;;10.07;92.09;101077.03;705137;27;913;-45
2022/05/13 00:06:41;;;;;;;6.83;4.60;;;;;;;10.11;92.45;101070.97;703919;27;4493;-43
2022/05/13 00:07:02;;;;;;;6.53;4.40;;;;;;;10.13;93.07;101069.22;705032;27;1604;-44
2022/05/13 00:07:22;;;;;;;6.47;4.72;;;;;;;10.10;93.70;101075.28;704503;27;844;-44
2022/05/13 00:07:42;;;;;;;6.60;4.80;;;;;;;9.98;95.29;101070.00;699215;28;1106;-44
2022/05/13 00:08:03;;;;;;;7.33;4.97;;;;;;;9.95;95.43;101075.22;700400;28;838;-43
2022/05/13 00:08:24;;;;;;;7.03;4.85;;;;;;;9.91;95.80;101065.63;698532;28;974;-43
2022/05/13 00:08:44;;;;;;;7.72;5.00;;;;;;;9.84;96.10;101073.47;698970;28;894;-44
2022/05/13 00:09:05;;;;;;;7.90;5.23;;;;;;;9.80;95.58;101066.47;698737;28;760;-44
2022/05/13 00:09:56;;;;;;;7.70;5.10;;;;;;;9.73;95.85;101072.50;698750;28;1081;-42
2022/05/13 00:10:06;;;;;;;5.97;4.70;;;;;;;9.78;94.64;101078.63;696610;28;5653;-43
2022/05/13 00:10:27;;;;;;;6.85;4.68;;;;;;;9.81;95.23;101068.19;696646;28;836;-44
2022/05/13 00:10:47;;;;;;;7.63;4.90;;;;;;;9.83;95.12;101068.19;696926;28;961;-44
2022/05/13 00:11:08;;;;;;;7.72;5.10;;;;;;;9.83;95.77;101069.09;697125;28;820;-43
2022/05/13 00:11:29;;;;;;;7.43;4.93;;;;;;;9.84;95.93;101072.56;696712;28;856;-45
2022/05/13 00:11:50;;;;;;;7.93;4.93;;;;;;;9.81;95.18;101073.41;697619;28;1988;-47
2022/05/13 00:12:10;;;;;;;7.87;4.87;;;;;;;9.79;95.44;101071.66;695517;28;1196;-43
2022/05/13 00:12:41;;;;;;;6.90;4.90;;;;;;;9.72;96.27;101070.78;697072;28;1120;-44
2022/05/13 00:13:01;;;;;;;8.18;5.00;;;;;;;9.64;97.07;101069.88;697021;28;4864;-44
2022/05/13 00:13:22;;;;;;;8.30;5.20;;;;;;;9.65;95.76;101076.81;696657;28;866;-44
2022/05/13 00:13:42;;;;;;;6.88;4.93;;;;;;;9.68;95.41;101071.63;697087;28;1161;-43
2022/05/13 00:14:05;;;;;;;7.30;5.10;;;;;;;9.70;95.98;101070.75;696574;28;740;-44
2022/05/13 00:14:26;;;;;;;6.78;4.68;;;;;;;9.72;95.77;101065.56;695772;28;789;-44
2022/05/13 00:14:46;;;;;;;7.03;4.80;;;;;;;9.71;96.12;101067.28;696624;28;1113;-43
2022/05/13 00:15:14;;;;;;;7.23;5.00;;;;;;;9.68;96.52;101072.50;696126;28;799;-44
2022/05/13 00:15:34;;;;;;;7.53;4.90;;;;;;;9.67;95.35;101073.34;695300;28;943;-43
2022/05/13 00:15:56;;;;;;;6.00;4.63;;;;;;;9.67;95.92;101073.34;699357;28;4543;-43
2022/05/13 00:16:17;;;;;;;7.18;4.90;;;;;;;9.67;96.17;101075.09;702469;27;943;-44
2022/05/13 00:16:38;;;;;;;6.70;4.90;;;;;;;9.67;95.46;101073.34;701476;27;776;-43
2022/05/13 00:16:58;;;;;;;6.32;4.60;;;;;;;9.67;95.34;101075.97;702496;28;1166;-43
2022/05/13 00:17:20;;;;;;;7.27;4.87;;;;;;;9.61;96.47;101064.59;697917;28;876;-43
2022/05/13 00:17:41;;;;;;;9.70;5.40;;;;;;;9.53;97.16;101075.03;698896;28;1022;-43
2022/05/13 00:18:02;;;;;;;8.52;5.30;;;;;;;9.48;97.34;101080.19;699593;28;899;-43
2022/05/13 00:18:22;;;;;;;7.47;5.22;;;;;;;9.47;98.02;101078.47;698547;28;980;-43
2022/05/13 00:18:43;;;;;;;7.87;5.30;;;;;;;9.46;98.31;101061.06;700417;28;4396;-44
2022/05/13 00:19:06;;;;;;;6.88;4.90;;;;;;;9.45;98.24;101072.34;697479;28;911;-43
2022/05/13 00:19:26;;;;;;;6.53;5.10;;;;;;;9.38;97.98;101062.75;701116;28;1070;-45
2022/05/13 00:19:47;;;;;;;6.43;5.03;;;;;;;9.32;98.85;101065.31;700953;28;1003;-45
2022/05/13 00:20:08;;;;;;;6.85;5.22;;;;;;;9.26;99.39;101067.88;701603;28;1126;-43
2022/05/13 00:20:29;;;;;;;7.00;5.20;;;;;;;9.23;99.16;101065.25;700706;28;895;-44
2022/05/13 00:20:49;;;;;;;6.45;4.97;;;;;;;9.20;98.85;101064.34;700126;28;1004;-44
2022/05/13 00:21:10;;;;;;;6.20;5.17;;;;;;;9.15;100.00;101068.69;700193;28;871;-44
2022/05/13 00:21:30;;;;;;;7.03;5.50;;;;;;;9.13;99.72;101065.16;698398;28;910;-44
2022/05/13 00:21:51;;;;;;;7.88;5.35;;;;;;;9.15;98.72;101070.41;698785;27;4254;-43
2022/05/13 00:22:12;;;;;;;7.37;5.03;;;;;;;9.23;98.50;101062.66;700596;28;965;-44
2022/05/13 00:22:33;;;;;;;8.27;5.07;;;;;;;9.26;98.09;101068.72;698690;28;1204;-43
2022/05/13 00:22:56;;;;;;;7.97;5.07;;;;;;;9.30;98.28;101064.44;699124;28;942;-44
2022/05/13 00:23:16;;;;;;;7.43;5.00;;;;;;;9.33;98.36;101069.66;696172;28;1065;-43
2022/05/13 00:23:37;;;;;;;6.93;4.80;;;;;;;9.35;98.16;101062.72;696327;28;978;-43
2022/05/13 00:23:57;;;;;;;6.93;5.07;;;;;;;9.36;97.59;101065.34;696114;28;1057;-44
2022/05/13 00:24:18;;;;;;;7.28;5.20;;;;;;;9.39;96.59;101064.50;696417;28;954;-43
2022/05/13 00:24:39;;;;;;;7.70;4.93;;;;;;;9.43;95.93;101066.25;698947;28;907;-44
2022/05/13 00:24:59;;;;;;;7.13;4.60;;;;;;;9.47;96.90;101064.53;699329;28;4738;-44
2022/05/13 00:25:29;;;;;;;7.40;5.10;;;;;;;9.50;96.65;101067.19;698082;28;935;-44
2022/05/13 00:25:50;;;;;;;6.72;5.28;;;;;;;9.48;96.71;101069.75;699710;28;950;-43
2022/05/13 00:26:10;;;;;;;6.90;4.88;;;;;;;9.53;96.03;101065.44;698507;28;812;-43
2022/05/13 00:26:31;;;;;;;7.43;4.73;;;;;;;9.56;96.14;101066.34;698463;28;891;-44
2022/05/13 00:26:51;;;;;;;9.07;5.00;;;;;;;9.50;97.20;101062.81;700427;28;1273;-44
2022/05/13 00:27:12;;;;;;;8.07;5.10;;;;;;;9.42;97.51;101061.91;699791;28;911;-43
2022/05/13 00:27:32;;;;;;;11.50;5.20;;;;;;;9.38;97.21;101060.13;697890;28;785;-43
2022/05/13 00:27:57;;;;;;;8.10;5.13;;;;;;;9.33;97.62;101061.81;697325;28;4237;-44
2022/05/13 00:28:17;;;;;;;6.90;5.18;;;;;;;9.32;98.14;101067.94;697463;28;820;-44
2022/05/13 00:28:38;;;;;;;7.25;5.00;;;;;;;9.25;98.25;101058.28;700136;28;780;-43
2022/05/13 00:28:59;;;;;;;8.03;5.00;;;;;;;9.21;97.89;101065.25;699365;28;1165;-44
2022/05/13 00:29:19;;;;;;;7.10;4.93;;;;;;;9.22;97.58;101058.28;697914;28;907;-44
2022/05/13 00:29:40;;;;;;;7.13;5.05;;;;;;;9.25;98.16;101066.13;698522;28;1199;-44
2022/05/13 00:30:00;;;;;;;7.60;5.13;;;;;;;9.26;98.07;101065.25;699971;28;1165;-44
2022/05/13 00:30:20;;;;;;;7.47;4.80;;;;;;;9.28;97.31;101067.03;700692;28;808;-45
2022/05/13 00:30:43;;;;;;;6.93;4.80;;;;;;;9.27;97.64;101060.06;700583;27;4434;-43
2022/05/13 00:31:04;;;;;;;7.45;4.90;;;;;;;9.29;97.38;101065.28;700522;28;1101;-43
2022/05/13 00:31:25;;;;;;;7.18;5.20;;;;;;;9.29;97.82;101060.94;699458;28;824;-43
2022/05/13 00:31:45;;;;;;;6.57;5.00;;;;;;;9.30;97.92;101065.28;699531;28;1904;-43
2022/05/13 00:32:06;;;;;;;7.33;5.37;;;;;;;9.29;97.51;101067.88;699136;28;876;-45
2022/05/13 00:32:27;;;;;;;7.10;5.28;;;;;;;9.31;97.78;101060.97;698689;28;922;-43
2022/05/13 00:32:49;;;;;;;7.30;5.33;;;;;;;9.32;97.77;101067.94;699512;28;947;-43
2022/05/13 00:33:09;;;;;;;6.78;4.88;;;;;;;9.34;96.89;101068.81;698760;28;884;-44
2022/05/13 00:33:30;;;;;;;7.10;4.97;;;;;;;9.39;96.15;101069.72;699849;28;800;-43
2022/05/13 00:33:51;;;;;;;8.43;5.13;;;;;;;9.45;96.39;101069.75;699422;27;4366;-43
2022/05/13 00:34:13;;;;;;;9.43;5.47;;;;;;;9.42;97.03;101064.50;699562;28;1121;-45
2022/05/13 00:34:36;;;;;;;7.90;5.80;;;;;;;9.38;98.19;101070.56;698961;28;807;-44
2022/05/13 00:34:56;;;;;;;7.93;5.30;;;;;;;9.27;98.95;101073.09;700038;28;1145;-43
2022/05/13 00:35:18;;;;;;;8.77;5.40;;;;;;;9.20;98.75;101068.72;699037;28;871;-43
2022/05/13 00:35:39;;;;;;;6.53;4.82;;;;;;;9.21;97.02;101070.47;700165;28;951;-43
2022/05/13 00:35:59;;;;;;;6.75;5.10;;;;;;;9.27;96.74;101078.31;700514;28;1093;-45
2022/05/13 00:36:20;;;;;;;6.45;4.88;;;;;;;9.32;97.08;101067.94;699293;28;989;-46
2022/05/13 00:36:40;;;;;;;7.07;5.00;;;;;;;9.33;96.78;101070.56;698164;27;4411;-44
2022/05/13 00:37:00;;;;;;;6.65;4.90;;;;;;;9.36;97.85;101072.31;699326;28;820;-43
2022/05/13 00:37:21;;;;;;;7.50;5.30;;;;;;;9.39;97.69;101069.72;699320;28;970;-43
2022/05/13 00:37:41;;;;;;;7.93;5.47;;;;;;;9.40;97.22;101079.28;699203;28;999;-43
2022/05/13 00:38:02;;;;;;;8.88;5.18;;;;;;;9.37;98.11;101074.94;699217;28;962;-44
2022/05/13 00:38:22;;;;;;;7.65;5.30;;;;;;;9.34;98.20;101074.88;699214;28;946;-43
2022/05/13 00:38:43;;;;;;;7.27;5.30;;;;;;;9.31;98.75;101074.88;698318;28;1121;-43
2022/05/13 00:39:04;;;;;;;7.97;5.10;;;;;;;9.29;98.80;101068.78;698248;28;931;-43
2022/05/13 00:39:25;;;;;;;7.10;5.00;;;;;;;9.29;97.25;101067.88;700256;28;997;-44
2022/05/13 00:39:45;;;;;;;7.25;5.03;;;;;;;9.35;97.56;101070.56;697248;27;4334;-45
2022/05/13 00:40:07;;;;;;;7.22;5.10;;;;;;;9.35;97.97;101073.16;697784;28;941;-44
2022/05/13 00:40:28;;;;;;;6.95;5.15;;;;;;;9.33;98.53;101070.56;698609;28;919;-45
2022/05/13 00:40:49;;;;;;;7.10;4.70;;;;;;;9.37;97.88;101074.94;699382;28;1234;-45
2022/05/13 00:41:09;;;;;;;6.50;4.55;;;;;;;9.39;97.13;101074.94;699558;28;963;-45
2022/05/13 00:41:30;;;;;;;6.93;5.05;;;;;;;9.42;97.02;101074.94;697841;28;883;-43
2022/05/13 00:41:50;;;;;;;7.70;5.17;;;;;;;9.38;98.61;101073.19;697106;28;990;-44
2022/05/13 00:42:14;;;;;;;7.05;5.00;;;;;;;9.36;98.83;101069.69;694201;28;953;-44
2022/05/13 00:42:35;;;;;;;6.93;5.03;;;;;;;9.34;99.63;101068.81;693419;28;847;-43
2022/05/13 00:43:07;;;;;;;7.50;5.20;;;;;;;9.32;99.77;101066.19;694323;28;4281;-43
2022/05/13 00:43:40;;;;;;;7.93;5.13;;;;;;;9.26;100.00;101070.47;700421;28;963;-43
2022/05/13 00:44:01;;;;;;;7.65;5.43;;;;;;;9.25;100.00;101071.34;700907;28;1542;-42
2022/05/13 00:44:21;;;;;;;7.33;5.03;;;;;;;9.27;98.98;101067.03;698706;28;885;-43
2022/05/13 00:44:41;;;;;;;7.10;5.07;;;;;;;9.32;98.17;101068.78;699605;28;902;-44
2022/05/13 00:45:03;;;;;;;7.30;5.20;;;;;;;9.35;98.12;101068.81;699089;28;943;-44
2022/05/13 00:45:23;;;;;;;6.13;5.10;;;;;;;9.36;98.25;101075.78;699240;28;1170;-43
2022/05/13 00:45:46;;;;;;;7.07;5.10;;;;;;;9.37;98.62;101071.44;700446;28;4907;-45
2022/05/13 00:46:07;;;;;;;7.00;5.00;;;;;;;9.44;97.22;101070.63;701333;28;852;-43
2022/05/13 00:46:28;;;;;;;6.45;5.03;;;;;;;9.45;98.27;101077.56;700407;28;919;-43
2022/05/13 00:46:48;;;;;;;7.00;4.90;;;;;;;9.43;98.57;101076.69;698030;28;1037;-45
2022/05/13 00:47:10;;;;;;;7.35;5.07;;;;;;;9.44;97.56;101078.47;699898;28;824;-44
2022/05/13 00:47:31;;;;;;;6.28;4.63;;;;;;;9.48;97.54;101072.34;698928;28;1059;-44
2022/05/13 00:47:51;;;;;;;7.17;4.93;;;;;;;9.45;98.68;101069.75;699311;28;983;-44
2022/05/13 00:48:11;;;;;;;7.43;5.40;;;;;;;9.42;99.23;101074.94;699603;28;914;-43
2022/05/13 00:48:32;;;;;;;8.20;5.53;;;;;;;9.42;99.18;101074.09;698865;28;882;-43
2022/05/13 00:48:52;;;;;;;7.93;5.13;;;;;;;9.40;99.13;101075.78;698805;27;4416;-43
2022/05/13 00:49:15;;;;;;;8.27;4.93;;;;;;;9.38;99.33;101071.44;700560;28;834;-45
2022/05/13 00:49:35;;;;;;;8.98;5.20;;;;;;;9.37;99.39;101071.44;699137;28;991;-45
2022/05/13 00:49:59;;;;;;;8.77;5.73;;;;;;;9.37;100.00;101068.81;699189;28;1444;-43
2022/05/13 00:50:20;;;;;;;6.95;5.15;;;;;;;9.35;98.90;101070.56;700206;28;949;-44
2022/05/13 00:50:40;;;;;;;6.28;4.80;;;;;;;9.36;98.47;101073.19;698661;28;1080;-45
2022/05/13 00:51:02;;;;;;;7.23;5.20;;;;;;;9.31;100.00;101068.78;698870;28;1119;-46
2022/05/13 00:51:27;;;;;;;7.95;5.32;;;;;;;9.26;100.00;101070.47;699740;28;1296;-43
2022/05/13 00:51:48;;;;;;;8.77;5.38;;;;;;;9.20;100.00;101069.56;699451;27;4255;-44
2022/05/13 00:52:10;;;;;;;8.02;5.50;;;;;;;9.15;100.00;101073.91;698760;28;966;-43
2022/05/13 00:52:31;;;;;;;6.63;5.47;;;;;;;9.12;100.00;101066.03;699860;28;1120;-45
2022/05/13 00:52:53;;;;;;;6.38;5.40;;;;;;;9.15;100.00;101071.28;700183;28;973;-45
2022/05/13 00:53:14;;;;;;;7.78;5.40;;;;;;;9.15;100.00;101066.06;697581;28;884;-42
2022/05/13 00:53:35;;;;;;;8.50;5.33;;;;;;;9.15;100.00;101067.78;698770;28;927;-44
2022/05/13 00:53:55;;;;;;;7.28;5.45;;;;;;;9.14;100.00;101064.31;700174;28;969;-43
2022/05/13 00:54:16;;;;;;;6.82;5.60;;;;;;;9.17;100.00;101064.34;699272;28;934;-43
2022/05/13 00:54:41;;;;;;;7.18;5.30;;;;;;;9.26;99.06;101063.53;697889;28;910;-44
2022/05/13 00:55:08;;;;;;;7.90;5.00;;;;;;;9.30;98.96;101069.66;697875;28;4800;-44
2022/05/13 00:55:33;;;;;;;6.82;4.93;;;;;;;9.31;99.36;101060.97;699313;28;1287;-46
2022/05/13 00:55:54;;;;;;;7.85;5.07;;;;;;;9.32;99.33;101066.19;698586;28;1568;-43
2022/05/13 00:56:15;;;;;;;8.10;5.33;;;;;;;9.34;98.53;101066.19;699278;28;946;-44
2022/05/13 00:56:36;;;;;;;8.13;5.25;;;;;;;9.37;98.84;101067.09;698852;28;1001;-43
2022/05/13 00:56:57;;;;;;;7.17;5.23;;;;;;;9.38;99.20;101063.59;698695;28;1323;-43
2022/05/13 00:57:18;;;;;;;7.20;5.53;;;;;;;9.36;99.84;101069.69;700840;28;890;-43
2022/05/13 00:57:39;;;;;;;8.27;5.40;;;;;;;9.31;100.00;101060.97;698370;28;4234;-43
2022/05/13 00:58:02;;;;;;;7.82;5.40;;;;;;;9.30;100.00;101064.44;698442;28;1295;-44
2022/05/13 00:58:23;;;;;;;9.10;5.95;;;;;;;9.30;100.00;101061.81;699175;28;761;-43
2022/05/13 00:58:47;;;;;;;8.00;5.55;;;;;;;9.30;100.00;101059.22;700206;28;1578;-44
2022/05/13 00:59:10;;;;;;;6.78;5.32;;;;;;;9.24;100.00;101069.63;700660;28;1244;-44
2022/05/13 00:59:34;;;;;;;8.82;5.38;;;;;;;9.16;100.00;101067.78;698173;28;1023;-43
2022/05/13 00:59:55;;;;;;;8.05;5.70;;;;;;;9.13;100.00;101066.91;698733;28;1280;-44
2022/05/13 01:00:16;;;;;;;8.98;5.63;;;;;;;9.09;100.00;101060.78;698431;28;1056;-44
2022/05/13 01:00:36;;;;;;;8.30;5.60;;;;;;;9.06;100.00;101063.38;699218;28;1198;-43
2022/05/13 01:00:57;;;;;;;8.38;5.68;;;;;;;9.01;100.00;101063.38;698181;28;4379;-43
2022/05/13 01:01:17;;;;;;;7.50;5.90;;;;;;;8.98;100.00;101067.66;698991;28;1114;-46
2022/05/13 01:01:38;;;;;;;7.78;5.55;;;;;;;8.96;100.00;101061.56;699241;28;1181;-44
2022/05/13 01:01:58;;;;;;;7.57;5.57;;;;;;;8.95;100.00;101058.06;696164;28;3794;-43
2022/05/13 01:02:18;;;;;;;7.40;5.53;;;;;;;8.94;100.00;101053.72;699730;28;1067;-44
2022/05/13 01:02:43;;;;;;;8.23;5.53;;;;;;;8.97;100.00;101060.69;699289;28;1206;-44
2022/05/13 01:03:06;;;;;;;8.30;5.60;;;;;;;8.99;100.00;101059.00;699723;28;872;-44
2022/05/13 01:03:26;;;;;;;7.10;5.32;;;;;;;8.95;100.00;101059.81;699335;28;1153;-42
2022/05/13 01:03:49;;;;;;;7.67;5.50;;;;;;;8.93;100.00;101058.91;698197;28;4488;-43
2022/05/13 01:04:13;;;;;;;8.63;5.63;;;;;;;8.91;100.00;101058.91;700455;28;1105;-43
2022/05/13 01:04:35;;;;;;;8.20;5.72;;;;;;;8.95;100.00;101062.44;704950;27;1136;-44
2022/05/13 01:04:56;;;;;;;8.05;5.32;;;;;;;9.05;100.00;101064.25;704149;27;1001;-45
2022/05/13 01:05:17;;;;;;;7.00;5.25;;;;;;;9.11;100.00;101060.81;705857;27;1102;-43
2022/05/13 01:05:41;;;;;;;7.05;4.78;;;;;;;9.16;100.00;101067.78;704746;27;4396;-43
2022/05/13 01:06:06;;;;;;;6.90;5.18;;;;;;;9.20;100.00;101060.88;702769;27;1230;-43
2022/05/13 01:06:27;;;;;;;7.80;5.60;;;;;;;9.24;100.00;101059.19;699995;28;959;-43
2022/05/13 01:06:51;;;;;;;7.15;4.88;;;;;;;9.28;99.28;101069.63;698707;28;4310;-43
2022/05/13 01:07:19;;;;;;;8.25;4.95;;;;;;;9.29;100.00;101063.56;699127;28;1090;-44
2022/05/13 01:07:40;;;;;;;7.18;5.30;;;;;;;9.24;100.00;101065.25;699193;28;1193;-44
2022/05/13 01:08:04;;;;;;;7.18;5.40;;;;;;;9.22;100.00;101067.00;699588;28;1045;-43
2022/05/13 01:08:25;;;;;;;6.95;5.20;;;;;;;9.17;100.00;101069.56;699409;28;1142;-45
2022/05/13 01:08:47;;;;;;;8.15;5.50;;;;;;;9.10;100.00;101062.53;699875;28;1067;-44
2022/05/13 01:09:07;;;;;;;9.02;5.55;;;;;;;9.07;100.00;101069.47;698940;28;1138;-43
2022/05/13 01:09:30;;;;;;;7.63;5.40;;;;;;;9.06;100.00;101065.13;700577;28;1094;-43
2022/05/13 01:09:56;;;;;;;7.13;5.40;;;;;;;9.09;100.00;101065.16;696570;28;4836;-43
2022/05/13 01:10:21;;;;;;;7.50;5.50;;;;;;;9.12;100.00;101068.63;699956;28;1142;-44
2022/05/13 01:10:44;;;;;;;6.97;5.32;;;;;;;9.14;100.00;101061.72;700442;28;1127;-43
2022/05/13 01:11:09;;;;;;;8.10;5.30;;;;;;;9.19;100.00;101074.78;700625;28;1119;-44
2022/05/13 01:11:33;;;;;;;7.85;5.50;;;;;;;9.23;100.00;101070.47;701011;28;1303;-45
2022/05/13 01:11:57;;;;;;;7.90;5.35;;;;;;;9.18;100.00;101075.66;699139;28;1977;-43
2022/05/13 01:12:23;;;;;;;7.85;5.18;;;;;;;9.16;100.00;101067.78;700686;28;1187;-44
2022/05/13 01:12:50;;;;;;;7.40;5.60;;;;;;;9.17;100.00;101060.88;697852;28;4298;-43
2022/05/13 01:13:15;;;;;;;7.30;5.38;;;;;;;9.15;100.00;101065.19;699244;28;1090;-45
2022/05/13 01:13:37;;;;;;;7.90;5.53;;;;;;;9.15;100.00;101063.47;697315;28;1153;-44
2022/05/13 01:14:08;;;;;;;8.82;5.72;;;;;;;9.22;100.00;101063.50;696588;28;1015;-44
2022/05/13 01:14:33;;;;;;;7.30;5.60;;;;;;;9.23;100.00;101062.66;700723;28;1077;-44
2022/05/13 01:14:58;;;;;;;8.20;5.60;;;;;;;9.14;100.00;101069.53;700008;27;1061;-43
2022/05/13 01:15:23;;;;;;;7.55;5.18;;;;;;;9.07;100.00;101065.13;698871;27;1160;-45
2022/05/13 01:15:43;;;;;;;8.88;6.00;;;;;;;9.04;100.00;101072.91;702261;27;4252;-44
2022/05/13 01:16:04;;;;;;;8.80;5.90;;;;;;;8.99;100.00;101072.03;699014;28;1346;-43
2022/05/13 01:16:27;;;;;;;8.00;5.63;;;;;;;8.96;100.00;101069.41;700965;28;1079;-44
2022/05/13 01:18:11;;;;;;;6.90;5.50;;;;;;;8.93;100.00;101066.75;700865;28;876;-44
2022/05/13 01:18:39;;;;;;;7.78;5.85;;;;;;;8.93;100.00;101062.41;701454;28;807;-45
2022/05/13 01:19:01;;;;;;;7.72;5.88;;;;;;;8.97;100.00;101065.91;700846;28;4708;-45
2022/05/13 01:19:21;;;;;;;7.60;5.75;;;;;;;8.96;100.00;101061.56;701818;28;1150;-43
2022/05/13 01:19:41;;;;;;;8.90;5.75;;;;;;;8.97;100.00;101068.53;699854;28;1055;-43
2022/05/13 01:20:03;;;;;;;8.23;5.70;;;;;;;9.01;100.00;101060.75;699361;28;1145;-44
2022/05/13 01:20:40;;;;;;;7.97;5.57;;;;;;;9.08;100.00;101069.47;701841;28;1035;-43
2022/05/13 01:21:02;;;;;;;7.90;5.78;;;;;;;9.11;100.00;101068.63;699156;28;1690;-44
2022/05/13 01:21:27;;;;;;;7.63;5.82;;;;;;;9.12;100.00;101071.25;700445;28;1054;-44
2022/05/13 01:21:49;;;;;;;6.88;5.63;;;;;;;9.13;100.00;101075.59;699109;27;4500;-43
2022/05/13 01:22:17;;;;;;;6.95;5.40;;;;;;;9.14;100.00;101066.94;699925;27;1110;-44
2022/05/13 01:22:43;;;;;;;7.97;5.82;;;;;;;9.13;100.00;101073.00;698463;28;1122;-43
2022/05/13 01:23:12;;;;;;;8.02;5.50;;;;;;;9.10;100.00;101070.38;700126;28;1125;-44
2022/05/13 01:23:42;;;;;;;8.20;5.57;;;;;;;9.13;100.00;101066.91;700913;28;1308;-43
2022/05/13 01:24:03;;;;;;;8.02;5.80;;;;;;;9.15;100.00;101071.28;700189;28;1503;-44
2022/05/13 01:24:23;;;;;;;8.10;5.80;;;;;;;9.16;100.00;101067.78;699840;28;1062;-43
2022/05/13 01:24:45;;;;;;;8.85;5.90;;;;;;;9.13;100.00;101066.91;699451;27;4370;-44
2022/05/13 01:25:05;;;;;;;8.48;5.85;;;;;;;9.10;100.00;101067.75;701070;28;1065;-45
2022/05/13 01:25:28;;;;;;;7.43;5.55;;;;;;;9.10;100.00;101067.75;701065;28;1047;-43
2022/05/13 01:25:56;;;;;;;8.68;5.30;;;;;;;9.12;100.00;101067.78;699670;28;1093;-44
2022/05/13 01:26:20;;;;;;;9.55;5.50;;;;;;;9.15;100.00;101071.28;698936;28;1121;-44
2022/05/13 01:26:40;;;;;;;7.97;5.35;;;;;;;9.18;99.78;101065.22;698825;28;1093;-45
2022/05/13 01:27:00;;;;;;;8.05;5.38;;;;;;;9.19;100.00;101067.84;700508;28;1372;-43
2022/05/13 01:27:21;;;;;;;7.43;5.27;;;;;;;9.20;100.00;101066.09;700881;28;980;-44
2022/05/13 01:27:43;;;;;;;7.23;5.23;;;;;;;9.20;100.00;101066.97;699462;27;4697;-43
2022/05/13 01:28:18;;;;;;;7.32;5.20;;;;;;;9.19;100.00;101066.94;700657;28;1051;-43
2022/05/13 01:28:44;;;;;;;7.65;5.40;;;;;;;9.17;100.00;101063.47;701017;28;1059;-44
2022/05/13 01:29:05;;;;;;;6.97;5.40;;;;;;;9.13;100.00;101066.91;699488;28;882;-44
2022/05/13 01:29:25;;;;;;;7.53;5.70;;;;;;;9.13;100.00;101064.31;698619;28;1860;-43
2022/05/13 01:29:45;;;;;;;6.80;5.80;;;;;;;9.15;100.00;101065.19;701160;28;983;-44
2022/05/13 01:30:06;;;;;;;7.53;5.93;;;;;;;9.15;100.00;101065.19;699863;28;1178;-43
2022/05/13 01:30:30;;;;;;;7.32;5.50;;;;;;;9.14;100.00;101066.06;700199;28;879;-43
2022/05/13 01:30:54;;;;;;;8.18;5.72;;;;;;;9.05;100.00;101064.25;701486;27;4433;-44
2022/05/13 01:31:22;;;;;;;8.10;5.95;;;;;;;8.95;100.00;101065.03;702704;27;1195;-45
2022/05/13 01:31:45;;;;;;;8.48;5.85;;;;;;;8.90;100.00;101061.50;701551;27;1910;-44
2022/05/13 01:32:06;;;;;;;7.68;5.50;;;;;;;8.92;100.00;101065.03;706061;27;977;-44
2022/05/13 01:32:27;;;;;;;6.88;5.40;;;;;;;8.95;100.00;101065.03;703865;27;823;-44
2022/05/13 01:32:47;;;;;;;7.70;5.40;;;;;;;8.95;100.00;101063.28;699737;28;930;-43
2022/05/13 01:33:07;;;;;;;7.90;5.87;;;;;;;8.97;100.00;101061.59;700332;28;797;-43
2022/05/13 01:33:29;;;;;;;8.52;5.78;;;;;;;8.98;100.00;101062.44;700254;28;907;-43
2022/05/13 01:33:49;;;;;;;6.95;5.40;;;;;;;8.98;100.00;101063.31;698870;28;4323;-43
2022/05/13 01:34:12;;;;;;;7.85;5.85;;;;;;;8.93;100.00;101058.91;696380;28;1022;-43
2022/05/13 01:34:33;;;;;;;9.07;6.18;;;;;;;8.92;100.00;101065.03;696903;28;946;-43
2022/05/13 01:34:53;;;;;;;8.00;5.97;;;;;;;8.91;100.00;101060.66;697125;28;1025;-44
2022/05/13 01:35:14;;;;;;;8.45;5.90;;;;;;;8.90;100.00;101059.75;699724;28;871;-45
2022/05/13 01:35:38;;;;;;;9.65;6.47;;;;;;;8.82;100.00;101062.31;699847;28;1460;-46
2022/05/13 01:36:01;;;;;;;8.93;5.82;;;;;;;8.79;100.00;101061.41;700379;28;993;-45
2022/05/13 01:36:21;;;;;;;8.35;5.80;;;;;;;8.76;100.00;101058.78;699101;28;1029;-45
2022/05/13 01:36:42;;;;;;;8.57;6.07;;;;;;;8.72;100.00;101068.28;699364;27;4472;-44
2022/05/13 01:37:03;;;;;;;9.80;6.57;;;;;;;8.69;100.00;101060.44;698383;28;931;-44
2022/05/13 01:37:23;;;;;;;9.10;6.25;;;;;;;8.69;100.00;101063.06;698397;28;839;-42
2022/05/13 01:37:44;;;;;;;8.37;6.07;;;;;;;8.74;100.00;101066.59;699391;28;970;-44
2022/05/13 01:38:04;;;;;;;8.02;5.80;;;;;;;8.78;100.00;101060.53;699687;28;954;-43
2022/05/13 01:38:28;;;;;;;8.37;6.00;;;;;;;8.83;100.00;101060.56;700054;28;831;-44
2022/05/13 01:38:49;;;;;;;8.02;5.50;;;;;;;8.85;100.00;101062.34;700434;28;1149;-45
2022/05/13 01:39:09;;;;;;;8.98;5.68;;;;;;;8.86;100.00;101058.88;699297;28;1003;-44
2022/05/13 01:39:30;;;;;;;8.55;5.68;;;;;;;8.86;100.00;101069.31;700700;28;874;-43
2022/05/13 01:39:50;;;;;;;9.47;5.43;;;;;;;8.88;100.00;101068.47;698936;28;4295;-43
2022/05/13 01:40:11;;;;;;;9.60;5.60;;;;;;;8.88;100.00;101065.84;701114;28;1059;-44
2022/05/13 01:40:31;;;;;;;8.00;5.80;;;;;;;8.81;100.00;101071.00;699389;28;1071;-43
2022/05/13 01:40:52;;;;;;;9.57;6.43;;;;;;;8.79;100.00;101061.41;700261;28;886;-44
2022/05/13 01:41:13;;;;;;;9.50;6.25;;;;;;;8.76;100.00;101071.81;697606;28;1682;-45
2022/05/13 01:41:34;;;;;;;9.57;5.85;;;;;;;8.74;100.00;101061.38;697597;28;1512;-45
2022/05/13 01:41:54;;;;;;;8.55;5.90;;;;;;;8.76;100.00;101069.22;699078;28;987;-43
2022/05/13 01:42:15;;;;;;;8.10;5.90;;;;;;;8.75;100.00;101072.66;698978;28;823;-43
2022/05/13 01:42:36;;;;;;;8.55;5.78;;;;;;;8.77;100.00;101070.97;699785;28;1006;-44
2022/05/13 01:42:56;;;;;;;8.20;5.85;;;;;;;8.77;100.00;101071.81;698545;28;4476;-43
2022/05/13 01:43:18;;;;;;;9.18;6.25;;;;;;;8.79;100.00;101066.63;697594;28;848;-43
2022/05/13 01:43:40;;;;;;;9.48;5.90;;;;;;;8.78;100.00;101067.50;699378;28;976;-44
2022/05/13 01:44:01;;;;;;;8.73;6.10;;;;;;;8.77;100.00;101076.19;699413;28;1238;-45
2022/05/13 01:44:21;;;;;;;8.27;5.97;;;;;;;8.74;100.00;101073.56;698390;28;836;-44
2022/05/13 01:44:41;;;;;;;7.53;5.90;;;;;;;8.68;100.00;101072.63;698772;28;1079;-44
2022/05/13 01:45:03;;;;;;;8.30;6.03;;;;;;;8.65;100.00;101072.59;700122;28;954;-44
2022/05/13 01:45:24;;;;;;;8.02;6.15;;;;;;;8.66;100.00;101076.06;698568;28;1088;-46
2022/05/13 01:45:44;;;;;;;8.70;5.90;;;;;;;8.65;100.00;101075.22;699442;28;4403;-46
2022/05/13 01:46:06;;;;;;;8.05;6.00;;;;;;;8.67;100.00;101078.69;699532;28;804;-45
2022/05/13 01:46:27;;;;;;;7.47;5.65;;;;;;;8.72;100.00;101083.94;699151;28;851;-44
2022/05/13 01:46:47;;;;;;;8.10;5.65;;;;;;;8.75;100.00;101081.38;699543;28;1006;-44